createdAt,value
2023-03-17T00:00:57.939Z,97.80
2023-03-17T00:01:59.913Z,97.70
2023-03-17T00:03:02.074Z,97.50
2023-03-17T00:04:04.124Z,97.50
2023-03-17T00:05:24.839Z,97.40
2023-03-17T00:06:29.697Z,97.30
2023-03-17T00:07:31.968Z,97.50
2023-03-17T00:08:35.855Z,97.50
2023-03-17T00:09:37.600Z,97.40
2023-03-17T00:10:39.334Z,97.40
2023-03-17T00:11:41.891Z,97.50
2023-03-17T00:12:44.732Z,97.30
2023-03-17T00:13:46.858Z,97.20
2023-03-17T00:14:48.789Z,97.40
2023-03-17T00:15:58.884Z,97.40
2023-03-17T00:17:00.859Z,97.20
2023-03-17T00:18:03.528Z,97.40
2023-03-17T00:19:05.793Z,97.30
2023-03-17T00:20:13.356Z,97.30
2023-03-17T00:21:21.102Z,97.40
2023-03-17T00:22:22.926Z,97.30
2023-03-17T00:23:25.446Z,97.20
2023-03-17T00:24:28.424Z,97.20
2023-03-17T00:25:33.099Z,97.20
2023-03-17T00:26:34.779Z,97.20
2023-03-17T00:27:36.488Z,97.20
2023-03-17T00:28:38.290Z,97.20
2023-03-17T00:29:40.702Z,97.10
2023-03-17T00:30:42.606Z,97.20
2023-03-17T00:31:48.048Z,97.20
2023-03-17T00:32:51.987Z,97.10
2023-03-17T00:33:54.803Z,97.00
2023-03-17T00:34:56.535Z,96.90
2023-03-17T00:35:59.421Z,97.10
2023-03-17T00:37:01.977Z,97.20
2023-03-17T00:38:03.866Z,97.00
2023-03-17T00:40:25.800Z,97.00
2023-03-17T00:41:27.739Z,97.30
2023-03-17T00:42:29.467Z,97.10
2023-03-17T00:43:31.256Z,96.90
2023-03-17T00:44:34.563Z,96.90
2023-03-17T00:45:36.859Z,96.80
2023-03-17T00:46:39.478Z,96.90
2023-03-17T00:47:41.511Z,96.80
2023-03-17T00:48:45.046Z,97.10
2023-03-17T00:49:48.333Z,96.90
2023-03-17T00:50:50.702Z,97.00
2023-03-17T00:51:53.229Z,96.90
2023-03-17T00:52:56.761Z,96.90
2023-03-17T00:53:58.475Z,96.90
2023-03-17T00:55:00.216Z,97.10
2023-03-17T00:56:02.827Z,97.00
2023-03-17T00:57:04.751Z,97.00
2023-03-17T00:58:25.682Z,97.10
2023-03-17T00:59:38.692Z,96.90
2023-03-17T01:00:40.428Z,97.00
2023-03-17T01:01:42.195Z,97.00
2023-03-17T01:02:45.555Z,97.10
2023-03-17T01:03:47.319Z,97.10
2023-03-17T01:04:59.494Z,96.70
2023-03-17T01:06:08.326Z,97.00
2023-03-17T01:07:11.973Z,96.90
2023-03-17T01:08:13.812Z,96.90
2023-03-17T01:09:18.538Z,96.90
2023-03-17T01:10:28.776Z,96.70
2023-03-17T01:11:31.178Z,97.10
2023-03-17T01:12:33.095Z,96.90
2023-03-17T01:13:35.131Z,97.00
2023-03-17T01:14:38.100Z,96.80
2023-03-17T01:15:43.777Z,96.90
2023-03-17T01:16:45.659Z,96.90
2023-03-17T01:17:50.183Z,97.00
2023-03-17T01:18:51.958Z,96.80
2023-03-17T01:19:53.688Z,96.80
2023-03-17T01:20:55.461Z,97.00
2023-03-17T01:21:57.830Z,96.90
2023-03-17T01:23:00.567Z,96.90
2023-03-17T01:24:02.808Z,97.10
2023-03-17T01:25:04.980Z,97.00
2023-03-17T01:26:06.756Z,96.90
2023-03-17T01:27:08.730Z,96.90
2023-03-17T01:28:14.438Z,97.00
2023-03-17T01:29:16.473Z,96.70
2023-03-17T01:30:23.334Z,96.80
2023-03-17T01:31:26.200Z,96.70
2023-03-17T01:32:28.384Z,96.60
2023-03-17T01:33:30.219Z,96.60
2023-03-17T01:34:32.813Z,96.90
2023-03-17T01:35:36.732Z,96.70
2023-03-17T01:36:38.527Z,96.80
2023-03-17T01:37:40.371Z,96.70
2023-03-17T01:38:42.170Z,96.80
2023-03-17T01:39:43.871Z,96.80
2023-03-17T01:40:49.709Z,96.80
2023-03-17T01:41:56.698Z,96.60
2023-03-17T01:43:10.416Z,96.60
2023-03-17T01:44:17.377Z,96.90
2023-03-17T01:45:56.708Z,96.50
2023-03-17T01:46:58.745Z,96.90
2023-03-17T01:48:00.488Z,96.80
2023-03-17T01:49:30.794Z,96.90
2023-03-17T01:50:32.568Z,96.90
2023-03-17T01:52:02.133Z,96.70
2023-03-17T01:53:04.645Z,96.90
2023-03-17T01:54:16.444Z,96.40
2023-03-17T01:55:19.704Z,96.60
2023-03-17T01:56:22.229Z,96.30
2023-03-17T01:57:29.632Z,96.30
2023-03-17T01:58:33.453Z,96.30
2023-03-17T01:59:39.531Z,96.30
2023-03-17T02:00:41.416Z,96.20
2023-03-17T02:01:48.363Z,96.30
2023-03-17T02:02:52.649Z,96.30
2023-03-17T02:03:55.459Z,96.50
2023-03-17T02:04:58.111Z,96.50
2023-03-17T02:06:01.471Z,96.40
2023-03-17T02:07:05.139Z,96.40
2023-03-17T02:08:16.398Z,96.30
2023-03-17T02:09:18.581Z,96.30
2023-03-17T02:10:23.005Z,96.30
2023-03-17T02:11:25.102Z,96.40
2023-03-17T02:12:28.986Z,96.50
2023-03-17T02:13:32.952Z,96.30
2023-03-17T02:14:34.784Z,96.30
2023-03-17T02:15:40.729Z,96.50
2023-03-17T02:16:45.270Z,96.50
2023-03-17T02:17:47.575Z,96.60
2023-03-17T02:18:49.406Z,96.80
2023-03-17T02:19:51.819Z,96.60
2023-03-17T02:20:53.480Z,96.50
2023-03-17T02:21:58.110Z,96.50
2023-03-17T02:23:01.260Z,96.50
2023-03-17T02:24:08.395Z,96.60
2023-03-17T02:25:10.890Z,96.90
2023-03-17T02:26:12.819Z,96.40
2023-03-17T02:27:18.656Z,96.20
2023-03-17T02:28:25.989Z,96.20
2023-03-17T02:29:27.818Z,96.40
2023-03-17T02:30:30.014Z,96.40
2023-03-17T02:31:33.224Z,96.10
2023-03-17T02:32:36.747Z,96.40
2023-03-17T02:33:38.986Z,96.30
2023-03-17T02:34:40.840Z,96.40
2023-03-17T02:35:43.093Z,96.50
2023-03-17T02:36:46.284Z,96.30
2023-03-17T02:37:48.170Z,96.10
2023-03-17T02:38:49.936Z,96.30
2023-03-17T02:39:51.813Z,96.40
2023-03-17T02:40:53.521Z,96.20
2023-03-17T02:41:56.659Z,96.20
2023-03-17T02:42:59.352Z,95.90
2023-03-17T02:44:01.337Z,95.70
2023-03-17T02:45:03.210Z,96.00
2023-03-17T02:46:05.759Z,96.00
2023-03-17T02:47:08.416Z,96.20
2023-03-17T02:48:10.405Z,96.00
2023-03-17T02:49:12.808Z,96.20
2023-03-17T02:50:23.053Z,96.10
2023-03-17T02:51:24.915Z,96.10
2023-03-17T02:52:27.001Z,95.90
2023-03-17T02:53:28.745Z,95.80
2023-03-17T02:54:31.142Z,96.00
2023-03-17T02:55:32.993Z,96.10
2023-03-17T02:56:34.748Z,96.30
2023-03-17T02:57:36.778Z,96.00
2023-03-17T02:58:38.765Z,95.80
2023-03-17T02:59:40.570Z,96.00
2023-03-17T03:00:42.462Z,95.60
2023-03-17T03:01:44.425Z,95.60
2023-03-17T03:02:46.267Z,95.70
2023-03-17T03:03:48.099Z,95.80
2023-03-17T03:04:50.404Z,95.60
2023-03-17T03:05:52.108Z,95.90
2023-03-17T03:06:54.245Z,95.70
2023-03-17T03:07:56.330Z,95.50
2023-03-17T03:08:58.197Z,95.80
2023-03-17T03:10:00.021Z,95.50
2023-03-17T03:11:02.572Z,95.40
2023-03-17T03:12:04.929Z,95.50
2023-03-17T03:13:07.236Z,95.30
2023-03-17T03:14:08.968Z,95.10
2023-03-17T03:15:11.627Z,95.20
2023-03-17T03:16:13.462Z,95.30
2023-03-17T03:17:15.925Z,95.30
2023-03-17T03:18:17.923Z,95.30
2023-03-17T03:19:19.755Z,95.60
2023-03-17T03:20:21.509Z,95.30
2023-03-17T03:21:23.320Z,95.30
2023-03-17T03:22:25.087Z,95.40
2023-03-17T03:23:27.406Z,95.20
2023-03-17T03:24:29.152Z,95.10
2023-03-17T03:25:31.395Z,94.90
2023-03-17T03:26:33.188Z,95.20
2023-03-17T03:27:35.216Z,94.60
2023-03-17T03:28:37.233Z,95.10
2023-03-17T03:29:39.146Z,95.10
2023-03-17T03:30:41.646Z,95.30
2023-03-17T03:31:43.360Z,95.40
2023-03-17T03:32:45.178Z,94.70
2023-03-17T03:33:46.973Z,95.30
2023-03-17T03:34:49.078Z,95.30
2023-03-17T03:35:50.858Z,95.30
2023-03-17T03:36:52.652Z,95.40
2023-03-17T03:37:54.409Z,95.60
2023-03-17T03:38:56.553Z,95.30
2023-03-17T03:39:58.368Z,95.90
2023-03-17T03:41:00.131Z,95.60
2023-03-17T03:42:01.875Z,95.50
2023-03-17T03:43:19.781Z,95.60
2023-03-17T03:44:24.847Z,95.50
2023-03-17T03:45:26.987Z,95.40
2023-03-17T03:46:28.844Z,95.80
2023-03-17T03:47:30.593Z,95.80
2023-03-17T03:48:32.844Z,95.60
2023-03-17T03:49:34.620Z,95.70
2023-03-17T03:50:36.469Z,95.80
2023-03-17T03:51:38.295Z,95.70
2023-03-17T03:52:40.268Z,95.30
2023-03-17T03:53:42.028Z,95.30
2023-03-17T03:54:43.793Z,95.20
2023-03-17T03:55:45.732Z,95.20
2023-03-17T03:56:47.447Z,95.10
2023-03-17T03:57:49.185Z,95.00
2023-03-17T03:58:51.268Z,95.10
2023-03-17T03:59:53.079Z,94.90
2023-03-17T04:00:54.841Z,94.70
2023-03-17T04:01:56.767Z,94.60
2023-03-17T04:02:58.981Z,94.50
2023-03-17T04:04:01.187Z,94.40
2023-03-17T04:05:03.180Z,94.40
2023-03-17T04:06:05.705Z,94.40
2023-03-17T04:07:08.228Z,94.20
2023-03-17T04:08:11.145Z,94.20
2023-03-17T04:09:13.421Z,94.20
2023-03-17T04:10:16.444Z,94.00
2023-03-17T04:11:18.374Z,94.30
2023-03-17T04:12:20.351Z,94.10
2023-03-17T04:13:22.235Z,94.00
2023-03-17T04:14:24.040Z,94.00
2023-03-17T04:15:26.312Z,94.00
2023-03-17T04:16:28.281Z,94.30
2023-03-17T04:17:30.133Z,93.90
2023-03-17T04:18:32.084Z,94.30
2023-03-17T04:19:33.879Z,94.10
2023-03-17T04:20:35.647Z,94.10
2023-03-17T04:21:37.646Z,94.50
2023-03-17T04:22:40.966Z,94.50
2023-03-17T04:23:42.665Z,94.50
2023-03-17T04:24:44.565Z,94.50
2023-03-17T04:25:46.856Z,94.10
2023-03-17T04:26:48.578Z,94.40
2023-03-17T04:27:50.307Z,94.60
2023-03-17T04:28:52.456Z,94.20
2023-03-17T04:29:54.376Z,94.30
2023-03-17T04:30:56.410Z,94.50
2023-03-17T04:31:58.256Z,94.70
2023-03-17T04:32:59.995Z,94.50
2023-03-17T04:34:02.220Z,94.30
2023-03-17T04:35:04.224Z,94.50
2023-03-17T04:36:07.780Z,94.30
2023-03-17T04:37:10.976Z,94.30
2023-03-17T04:38:13.430Z,94.30
2023-03-17T04:39:16.260Z,94.30
2023-03-17T04:40:18.654Z,94.40
2023-03-17T04:41:21.255Z,94.60
2023-03-17T04:42:23.042Z,94.50
2023-03-17T04:43:24.878Z,94.70
2023-03-17T04:44:27.109Z,94.90
2023-03-17T04:45:28.903Z,95.00
2023-03-17T04:46:31.158Z,94.70
2023-03-17T04:47:33.558Z,94.80
2023-03-17T04:48:36.017Z,95.00
2023-03-17T04:49:37.848Z,94.70
2023-03-17T04:50:39.680Z,94.50
2023-03-17T04:51:42.063Z,94.40
2023-03-17T04:52:43.856Z,94.70
2023-03-17T04:53:45.642Z,94.80
2023-03-17T04:54:47.442Z,94.90
2023-03-17T04:55:49.237Z,94.90
2023-03-17T04:56:51.074Z,95.00
2023-03-17T04:57:52.879Z,94.90
2023-03-17T04:58:54.837Z,95.20
2023-03-17T04:59:57.646Z,95.10
2023-03-17T05:00:59.514Z,95.10
2023-03-17T05:02:02.339Z,95.30
2023-03-17T05:03:09.024Z,95.20
2023-03-17T05:04:30.762Z,95.20
2023-03-17T05:05:34.034Z,95.10
2023-03-17T05:06:37.209Z,95.30
2023-03-17T05:07:39.096Z,95.10
2023-03-17T05:08:41.118Z,95.30
2023-03-17T05:09:43.126Z,95.00
2023-03-17T05:10:44.852Z,95.00
2023-03-17T05:11:46.947Z,95.20
2023-03-17T05:12:48.694Z,95.20
2023-03-17T05:13:50.454Z,95.30
2023-03-17T05:14:52.220Z,95.40
2023-03-17T05:15:55.601Z,95.20
2023-03-17T05:16:57.455Z,95.00
2023-03-17T05:17:59.251Z,94.80
2023-03-17T05:19:01.045Z,94.90
2023-03-17T05:20:02.991Z,95.10
2023-03-17T05:21:06.281Z,95.20
2023-03-17T05:22:08.155Z,95.00
2023-03-17T05:23:10.085Z,95.10
2023-03-17T05:24:11.835Z,95.00
2023-03-17T05:25:13.561Z,95.10
2023-03-17T05:26:15.285Z,95.20
2023-03-17T05:27:17.038Z,95.20
2023-03-17T05:28:20.835Z,95.10
2023-03-17T05:29:23.112Z,94.90
2023-03-17T05:30:28.310Z,95.00
2023-03-17T05:31:31.077Z,95.10
2023-03-17T05:32:33.690Z,94.80
2023-03-17T05:33:37.125Z,94.60
2023-03-17T05:34:38.941Z,94.80
2023-03-17T05:35:41.783Z,95.00
2023-03-17T05:36:44.603Z,95.10
2023-03-17T05:37:46.980Z,95.10
2023-03-17T05:38:48.734Z,95.10
2023-03-17T05:39:50.986Z,95.00
2023-03-17T05:40:53.552Z,95.00
2023-03-17T05:41:55.402Z,95.00
2023-03-17T05:42:57.159Z,95.10
2023-03-17T05:43:58.984Z,95.60
2023-03-17T05:45:00.753Z,95.00
2023-03-17T05:46:03.780Z,94.90
2023-03-17T05:47:05.746Z,94.90
2023-03-17T05:48:07.948Z,94.80
2023-03-17T05:49:10.099Z,95.00
2023-03-17T05:50:12.944Z,95.00
2023-03-17T05:51:15.588Z,94.70
2023-03-17T05:52:17.367Z,94.10
2023-03-17T05:53:19.117Z,94.30
2023-03-17T05:54:23.046Z,94.20
2023-03-17T05:55:24.882Z,94.30
2023-03-17T05:56:33.236Z,94.40
2023-03-17T05:57:35.486Z,94.50
2023-03-17T05:58:37.242Z,94.40
2023-03-17T05:59:39.030Z,94.20
2023-03-17T06:00:40.871Z,94.50
2023-03-17T06:01:42.807Z,94.60
2023-03-17T06:02:44.995Z,94.50
2023-03-17T06:03:47.201Z,94.40
2023-03-17T06:04:49.028Z,94.40
2023-03-17T06:05:50.913Z,94.70
2023-03-17T06:06:52.688Z,94.20
2023-03-17T06:07:56.496Z,93.90
2023-03-17T06:08:58.485Z,93.90
2023-03-17T06:10:00.505Z,94.20
2023-03-17T06:11:02.512Z,94.30
2023-03-17T06:12:04.694Z,94.20
2023-03-17T06:13:06.545Z,94.30
2023-03-17T06:14:08.325Z,94.40
2023-03-17T06:15:10.805Z,94.00
2023-03-17T06:16:13.222Z,93.90
2023-03-17T06:17:15.105Z,94.70
2023-03-17T06:18:16.876Z,94.60
2023-03-17T06:19:18.807Z,94.20
2023-03-17T06:20:21.048Z,94.20
2023-03-17T06:21:22.825Z,94.40
2023-03-17T06:22:24.570Z,94.80
2023-03-17T06:23:26.503Z,94.30
2023-03-17T06:24:28.222Z,94.20
2023-03-17T06:25:30.480Z,94.20
2023-03-17T06:26:33.012Z,94.30
2023-03-17T06:27:34.776Z,94.10
2023-03-17T06:28:36.555Z,94.00
2023-03-17T06:29:38.364Z,94.00
2023-03-17T06:30:40.841Z,94.10
2023-03-17T06:31:43.217Z,94.10
2023-03-17T06:32:45.097Z,94.10
2023-03-17T06:33:46.937Z,94.20
2023-03-17T06:34:48.880Z,94.30
2023-03-17T06:35:51.683Z,94.10
2023-03-17T06:36:53.995Z,94.00
2023-03-17T06:37:56.032Z,93.10
2023-03-17T06:38:58.367Z,93.50
2023-03-17T06:40:01.151Z,93.50
2023-03-17T06:41:03.398Z,93.80
2023-03-17T06:42:06.373Z,93.70
2023-03-17T06:43:08.413Z,93.70
2023-03-17T06:44:10.359Z,93.50
2023-03-17T06:45:12.894Z,93.70
2023-03-17T06:46:14.748Z,93.70
2023-03-17T06:47:16.513Z,93.70
2023-03-17T06:48:18.786Z,93.80
2023-03-17T06:49:20.570Z,93.70
2023-03-17T06:50:22.522Z,93.50
2023-03-17T06:51:24.342Z,93.20
2023-03-17T06:52:27.626Z,93.00
2023-03-17T06:53:29.417Z,93.20
2023-03-17T06:54:31.680Z,93.00
2023-03-17T06:55:33.885Z,92.40
2023-03-17T06:56:35.865Z,92.80
2023-03-17T06:57:37.718Z,92.50
2023-03-17T06:58:39.896Z,92.30
2023-03-17T06:59:41.726Z,92.10
2023-03-17T07:00:45.499Z,92.20
2023-03-17T07:01:48.737Z,92.30
2023-03-17T07:02:51.223Z,92.90
2023-03-17T07:03:53.626Z,92.90
2023-03-17T07:04:57.738Z,92.70
2023-03-17T07:06:01.087Z,92.90
2023-03-17T07:07:05.165Z,92.30
2023-03-17T07:08:07.395Z,91.90
2023-03-17T07:09:10.107Z,91.80
2023-03-17T07:10:13.766Z,91.00
2023-03-17T07:11:15.855Z,91.40
2023-03-17T07:12:17.620Z,92.00
2023-03-17T07:13:19.887Z,91.00
2023-03-17T07:14:21.599Z,89.50
2023-03-17T07:15:24.047Z,90.10
2023-03-17T07:16:25.923Z,89.60
2023-03-17T07:17:28.084Z,89.60
2023-03-17T07:18:34.319Z,88.00
2023-03-17T07:19:36.273Z,88.70
2023-03-17T07:20:38.281Z,90.50
2023-03-17T07:21:40.097Z,90.80
2023-03-17T07:22:42.393Z,89.80
2023-03-17T07:23:44.172Z,89.20
2023-03-17T07:24:47.009Z,90.10
2023-03-17T07:25:49.218Z,90.60
2023-03-17T07:26:51.429Z,90.00
2023-03-17T07:27:53.449Z,89.40
2023-03-17T07:28:55.929Z,89.40
2023-03-17T07:29:57.779Z,90.10
2023-03-17T07:31:00.503Z,90.30
2023-03-17T07:32:02.970Z,91.10
2023-03-17T07:33:05.606Z,90.10
2023-03-17T07:34:07.695Z,90.30
2023-03-17T07:35:09.526Z,87.50
2023-03-17T07:36:11.421Z,86.60
2023-03-17T07:37:13.332Z,85.80
2023-03-17T07:38:17.038Z,87.60
2023-03-17T07:39:18.821Z,87.00
2023-03-17T07:40:20.674Z,87.90
2023-03-17T07:41:22.657Z,90.60
2023-03-17T07:42:24.384Z,90.50
2023-03-17T07:43:26.799Z,89.40
2023-03-17T07:44:28.850Z,87.50
2023-03-17T07:45:31.412Z,88.90
2023-03-17T07:46:33.501Z,88.30
2023-03-17T07:47:35.257Z,86.10
2023-03-17T07:48:40.877Z,85.30
2023-03-17T07:49:43.243Z,87.60
2023-03-17T07:50:45.225Z,86.30
2023-03-17T07:51:46.975Z,87.40
2023-03-17T07:52:48.711Z,88.80
2023-03-17T07:53:50.513Z,90.00
2023-03-17T07:54:52.370Z,90.30
2023-03-17T07:55:54.326Z,89.70
2023-03-17T07:56:56.824Z,90.20
2023-03-17T07:57:59.005Z,90.30
2023-03-17T07:59:00.992Z,89.80
2023-03-17T08:00:04.442Z,89.90
2023-03-17T08:01:06.846Z,87.10
2023-03-17T08:02:14.782Z,87.40
2023-03-17T08:03:16.889Z,87.70
2023-03-17T08:04:18.767Z,85.60
2023-03-17T08:05:20.854Z,86.00
2023-03-17T08:06:25.411Z,87.10
2023-03-17T08:07:27.223Z,86.80
2023-03-17T08:08:29.543Z,85.80
2023-03-17T08:09:31.948Z,86.40
2023-03-17T08:10:34.362Z,85.50
2023-03-17T08:11:36.785Z,85.70
2023-03-17T08:12:38.951Z,83.60
2023-03-17T08:13:40.721Z,82.50
2023-03-17T08:14:42.584Z,83.50
2023-03-17T08:15:44.463Z,86.10
2023-03-17T08:16:46.350Z,85.30
2023-03-17T08:17:48.562Z,85.10
2023-03-17T08:18:50.603Z,81.20
2023-03-17T08:19:52.846Z,77.90
2023-03-17T08:20:54.620Z,83.40
2023-03-17T08:21:56.403Z,75.70
2023-03-17T08:22:58.130Z,72.30
2023-03-17T08:24:00.163Z,74.80
2023-03-17T08:25:02.627Z,72.00
2023-03-17T08:26:04.543Z,65.40
2023-03-17T08:27:07.927Z,62.70
2023-03-17T08:28:10.302Z,67.20
2023-03-17T08:29:12.030Z,69.40
2023-03-17T08:30:13.946Z,67.90
2023-03-17T08:31:18.380Z,64.20
2023-03-17T08:32:20.723Z,64.30
2023-03-17T08:33:22.675Z,66.00
2023-03-17T08:34:26.159Z,66.80
2023-03-17T08:35:27.969Z,60.80
2023-03-17T08:36:30.219Z,61.20
2023-03-17T08:37:32.497Z,60.00
2023-03-17T08:38:34.290Z,56.10
2023-03-17T08:39:36.326Z,55.10
2023-03-17T08:40:39.929Z,56.60
2023-03-17T08:41:42.126Z,54.00
2023-03-17T08:42:44.542Z,56.90
2023-03-17T08:43:46.873Z,57.70
2023-03-17T08:44:48.829Z,55.60
2023-03-17T08:45:50.685Z,54.80
2023-03-17T08:46:52.494Z,55.20
2023-03-17T08:47:54.290Z,55.10
2023-03-17T08:48:58.048Z,52.90
2023-03-17T08:50:00.642Z,53.00
2023-03-17T08:51:02.477Z,55.70
2023-03-17T08:52:04.531Z,56.30
2023-03-17T08:53:06.388Z,59.60
2023-03-17T08:54:08.246Z,56.10
2023-03-17T08:55:12.691Z,56.70
2023-03-17T08:56:15.388Z,51.30
2023-03-17T08:57:17.287Z,54.20
2023-03-17T08:58:20.114Z,56.30
2023-03-17T08:59:21.867Z,55.50
2023-03-17T09:00:23.897Z,52.70
2023-03-17T09:01:27.328Z,52.30
2023-03-17T09:02:29.559Z,54.30
2023-03-17T09:03:32.688Z,54.60
2023-03-17T09:04:38.375Z,50.20
2023-03-17T09:05:42.783Z,53.50
2023-03-17T09:07:01.868Z,49.40
2023-03-17T09:08:04.492Z,50.80
2023-03-17T09:09:06.852Z,51.00
2023-03-17T09:10:10.902Z,49.70
2023-03-17T09:11:16.732Z,50.50
2023-03-17T09:12:18.596Z,51.00
2023-03-17T09:13:22.018Z,50.00
2023-03-17T09:14:24.797Z,49.60
2023-03-17T09:15:26.676Z,49.30
2023-03-17T09:16:28.719Z,49.50
2023-03-17T09:17:30.509Z,49.50
2023-03-17T09:18:33.055Z,48.90
2023-03-17T09:19:34.793Z,49.00
2023-03-17T09:20:37.157Z,50.10
2023-03-17T09:21:38.889Z,51.20
2023-03-17T09:22:41.344Z,53.30
2023-03-17T09:23:43.630Z,53.10
2023-03-17T09:24:46.592Z,50.30
2023-03-17T09:25:48.307Z,50.00
2023-03-17T09:26:50.006Z,49.70
2023-03-17T09:27:52.032Z,46.90
2023-03-17T09:28:54.482Z,47.10
2023-03-17T09:29:56.347Z,48.40
2023-03-17T09:31:03.486Z,47.00
2023-03-17T09:32:05.477Z,46.50
2023-03-17T09:33:07.205Z,46.00
2023-03-17T09:34:10.926Z,47.20
2023-03-17T09:35:13.260Z,48.30
2023-03-17T09:36:15.075Z,47.70
2023-03-17T09:37:16.819Z,45.00
2023-03-17T09:38:18.805Z,43.20
2023-03-17T09:39:23.097Z,42.70
2023-03-17T09:40:35.285Z,43.50
2023-03-17T09:41:57.367Z,45.60
2023-03-17T09:43:37.120Z,47.90
2023-03-17T09:44:50.988Z,45.30
2023-03-17T09:45:53.042Z,43.10
2023-03-17T09:47:00.802Z,41.70
2023-03-17T09:48:11.960Z,43.70
2023-03-17T09:49:28.408Z,43.00
2023-03-17T09:50:57.895Z,43.10
2023-03-17T09:51:59.973Z,41.30
2023-03-17T09:53:04.966Z,40.10
2023-03-17T09:54:27.739Z,40.30
2023-03-17T09:55:32.525Z,40.50
2023-03-17T09:56:36.504Z,40.60
2023-03-17T09:57:40.688Z,41.20
2023-03-17T09:58:51.817Z,40.70
2023-03-17T10:00:19.140Z,40.30
2023-03-17T10:01:22.765Z,40.80
2023-03-17T10:02:29.761Z,40.10
2023-03-17T10:03:32.556Z,40.40
2023-03-17T10:04:34.270Z,39.80
2023-03-17T10:05:36.445Z,39.90
2023-03-17T10:06:43.632Z,39.90
2023-03-17T10:08:19.062Z,39.60
2023-03-17T10:10:03.170Z,38.60
2023-03-17T10:11:31.427Z,39.50
2023-03-17T10:12:45.630Z,39.40
2023-03-17T10:13:54.917Z,38.90
2023-03-17T10:15:11.444Z,39.40
2023-03-17T10:16:19.061Z,39.90
2023-03-17T10:17:23.674Z,39.60
2023-03-17T10:18:31.134Z,38.50
2023-03-17T10:19:42.457Z,38.50
2023-03-17T10:21:03.457Z,39.50
2023-03-17T10:22:26.430Z,38.70
2023-03-17T10:23:32.044Z,37.50
2023-03-17T10:24:34.491Z,38.60
2023-03-17T10:25:37.526Z,38.50
2023-03-17T10:26:53.392Z,38.40
2023-03-17T10:28:23.831Z,38.00
2023-03-17T10:29:25.573Z,37.40
2023-03-17T10:30:27.768Z,37.80
2023-03-17T10:31:34.610Z,37.70
2023-03-17T10:32:39.224Z,36.20
2023-03-17T10:33:40.999Z,37.90
2023-03-17T10:34:43.588Z,37.40
2023-03-17T10:35:45.525Z,37.10
2023-03-17T10:36:51.470Z,37.30
2023-03-17T10:38:04.426Z,37.00
2023-03-17T10:39:17.594Z,36.50
2023-03-17T10:40:28.651Z,36.10
2023-03-17T10:41:32.968Z,36.40
2023-03-17T10:42:45.249Z,36.50
2023-03-17T10:43:50.711Z,36.50
2023-03-17T10:45:14.707Z,36.80
2023-03-17T10:46:25.737Z,36.50
2023-03-17T10:47:34.772Z,36.40
2023-03-17T10:48:38.622Z,37.50
2023-03-17T10:49:44.047Z,36.40
2023-03-17T10:50:48.634Z,36.40
2023-03-17T10:51:53.889Z,36.50
2023-03-17T10:53:18.265Z,36.20
2023-03-17T10:54:22.807Z,37.10
2023-03-17T10:55:29.325Z,37.00
2023-03-17T10:56:36.350Z,36.80
2023-03-17T10:57:39.265Z,36.30
2023-03-17T10:58:50.320Z,36.70
2023-03-17T10:59:54.368Z,37.30
2023-03-17T11:01:00.282Z,36.20
2023-03-17T11:02:16.339Z,36.80
2023-03-17T11:03:23.046Z,36.60
2023-03-17T11:04:29.118Z,36.80
2023-03-17T11:05:31.241Z,37.00
2023-03-17T11:06:38.396Z,36.90
2023-03-17T11:07:40.709Z,36.40
2023-03-17T11:08:53.644Z,36.60
2023-03-17T11:10:01.064Z,35.80
2023-03-17T11:11:09.029Z,35.50
2023-03-17T11:12:35.123Z,35.60
2023-03-17T11:13:37.129Z,36.30
2023-03-17T11:14:44.002Z,35.40
2023-03-17T11:15:57.748Z,36.00
2023-03-17T11:17:13.490Z,36.70
2023-03-17T11:18:32.067Z,36.30
2023-03-17T11:19:43.433Z,36.80
2023-03-17T11:20:53.261Z,36.60
2023-03-17T11:22:02.665Z,36.20
2023-03-17T11:23:23.540Z,36.40
2023-03-17T11:24:33.559Z,36.00
2023-03-17T11:25:40.533Z,35.80
2023-03-17T11:27:07.267Z,35.80
2023-03-17T11:28:16.163Z,35.70
2023-03-17T11:29:34.915Z,36.90
2023-03-17T11:30:38.157Z,36.20
2023-03-17T11:31:54.461Z,37.30
2023-03-17T11:33:13.648Z,36.30
2023-03-17T11:34:27.712Z,37.30
2023-03-17T11:35:44.310Z,35.90
2023-03-17T11:37:06.824Z,35.90
2023-03-17T11:38:09.232Z,35.30
2023-03-17T11:39:22.189Z,35.20
2023-03-17T11:40:38.707Z,34.70
2023-03-17T11:41:46.004Z,34.30
2023-03-17T11:43:05.806Z,34.20
2023-03-17T11:44:46.910Z,34.70
2023-03-17T11:46:01.732Z,34.10
2023-03-17T11:47:32.249Z,34.20
2023-03-17T11:48:37.484Z,34.00
2023-03-17T11:49:40.693Z,34.30
2023-03-17T11:50:45.410Z,34.70
2023-03-17T11:52:11.207Z,34.90
2023-03-17T11:53:18.751Z,36.20
2023-03-17T11:54:29.669Z,35.60
2023-03-17T11:55:48.861Z,36.10
2023-03-17T11:57:02.137Z,36.30
2023-03-17T11:58:10.577Z,36.40
2023-03-17T11:59:49.693Z,35.60
2023-03-17T12:01:00.399Z,37.10
2023-03-17T12:02:17.380Z,36.90
2023-03-17T12:03:41.057Z,35.80
2023-03-17T12:04:53.381Z,37.10
2023-03-17T12:06:00.587Z,34.00
2023-03-17T12:07:30.360Z,33.60
2023-03-17T12:08:42.405Z,36.30
2023-03-17T12:10:00.216Z,36.10
2023-03-17T12:11:08.417Z,34.00
2023-03-17T12:12:15.984Z,34.70
2023-03-17T12:13:46.614Z,34.10
2023-03-17T12:14:52.339Z,36.40
2023-03-17T12:16:04.382Z,34.80
2023-03-17T12:17:37.947Z,34.70
2023-03-17T12:19:03.353Z,35.20
2023-03-17T12:20:18.323Z,35.20
2023-03-17T12:21:36.656Z,34.60
2023-03-17T12:23:07.622Z,35.50
2023-03-17T12:24:09.955Z,35.70
2023-03-17T12:25:26.999Z,33.80
2023-03-17T12:26:44.317Z,35.30
2023-03-17T12:28:14.492Z,35.60
2023-03-17T12:29:22.707Z,35.70
2023-03-17T12:30:32.590Z,35.10
2023-03-17T12:31:44.977Z,33.10
2023-03-17T12:33:20.670Z,34.30
2023-03-17T12:35:34.910Z,34.70
2023-03-17T12:36:40.262Z,33.40
2023-03-17T12:37:42.040Z,33.40
2023-03-17T12:38:45.665Z,34.00
2023-03-17T12:40:16.234Z,34.10
2023-03-17T12:41:28.748Z,33.80
2023-03-17T12:43:07.974Z,35.00
2023-03-17T12:44:28.733Z,36.70
2023-03-17T12:45:33.538Z,35.30
2023-03-17T12:46:38.357Z,34.80
2023-03-17T12:47:45.652Z,34.60
2023-03-17T12:48:57.013Z,36.40
2023-03-17T12:50:19.763Z,34.40
2023-03-17T12:51:46.776Z,36.80
2023-03-17T12:52:57.178Z,36.70
2023-03-17T12:54:00.183Z,36.60
2023-03-17T12:55:05.000Z,34.30
2023-03-17T12:56:21.076Z,34.00
2023-03-17T12:57:28.883Z,34.90
2023-03-17T12:58:44.603Z,33.50
2023-03-17T12:59:49.524Z,33.30
2023-03-17T13:00:57.579Z,34.00
2023-03-17T13:02:13.721Z,34.10
2023-03-17T13:03:38.518Z,36.40
2023-03-17T13:04:57.774Z,33.00
2023-03-17T13:06:07.381Z,36.40
2023-03-17T13:07:18.953Z,34.40
2023-03-17T13:08:33.495Z,33.80
2023-03-17T13:09:48.156Z,34.80
2023-03-17T13:10:50.446Z,35.50
2023-03-17T13:11:52.322Z,38.10
2023-03-17T13:13:27.043Z,37.20
2023-03-17T13:14:44.719Z,37.30
2023-03-17T13:15:55.179Z,35.90
2023-03-17T13:17:25.602Z,35.50
2023-03-17T13:18:51.277Z,35.80
2023-03-17T13:20:08.037Z,34.40
2023-03-17T13:21:13.001Z,36.60
2023-03-17T13:22:32.687Z,36.50
2023-03-17T13:23:54.942Z,36.60
2023-03-17T13:25:29.750Z,38.10
2023-03-17T13:26:55.083Z,37.60
2023-03-17T13:28:12.225Z,37.00
2023-03-17T13:29:37.078Z,37.30
2023-03-17T13:30:38.905Z,36.80
2023-03-17T13:31:41.004Z,37.30
2023-03-17T13:32:42.938Z,38.40
2023-03-17T13:33:54.429Z,38.50
2023-03-17T13:35:02.326Z,37.60
2023-03-17T13:36:28.514Z,37.50
2023-03-17T13:37:53.368Z,37.40
2023-03-17T13:39:26.585Z,39.00
2023-03-17T13:40:54.758Z,37.30
2023-03-17T13:42:15.656Z,37.40
2023-03-17T13:43:47.099Z,37.10
2023-03-17T13:45:13.581Z,36.60
2023-03-17T13:46:26.728Z,37.10
2023-03-17T13:47:33.473Z,38.00
2023-03-17T13:48:37.256Z,38.70
2023-03-17T13:49:39.066Z,38.10
2023-03-17T13:50:42.250Z,38.10
2023-03-17T13:51:59.464Z,38.30
2023-03-17T13:53:04.884Z,38.30
2023-03-17T13:54:19.235Z,38.50
2023-03-17T13:55:24.277Z,38.70
2023-03-17T13:56:41.151Z,38.60
2023-03-17T13:57:43.081Z,38.90
2023-03-17T13:59:00.096Z,38.50
2023-03-17T14:00:28.301Z,37.50
2023-03-17T14:01:42.275Z,37.40
2023-03-17T14:02:45.218Z,37.90
2023-03-17T14:03:50.541Z,38.10
2023-03-17T14:05:06.091Z,38.60
2023-03-17T14:06:11.926Z,38.60
2023-03-17T14:07:21.379Z,38.20
2023-03-17T14:08:33.731Z,37.80
2023-03-17T14:09:42.150Z,37.70
2023-03-17T14:10:56.595Z,38.50
2023-03-17T14:12:00.277Z,39.30